Погода Ловейрана 2 недели

Сан-Паулу, Бразилия

21 июля-03 августа
  • 21июля
    Сегодня
    +11°
    +26°
    Ясно и безоблачно
    ВремяПогодаТемператураВлажностьДавлениеВетер, м/сВероятность осадков
    00:00Небольшая облачность+13°C98 %697 мм5.5 м/с4 %
    03:00Облачно с прояснениями+12°C98 %697 мм4.5 м/с5 %
    06:00Облачно с прояснениями+11°C99 %696 мм3.9 м/с5 %
    09:00Ясно и безоблачно+14°C82 %698 мм2.8 м/с5 %
    12:00Ясно и безоблачно+22°C49 %699 мм1.1 м/с5 %
    15:00Ясно и безоблачно+25°C41 %697 мм1.3 м/с5 %
    18:00Ясно и безоблачно+21°C64 %697 мм2.3 м/с5 %
    21:00Ясно и безоблачно+17°C84 %697 мм1.9 м/с5 %
  • 22июля
    Понедельник
    +10°
    +27°
    Ясно и безоблачно
    ВремяПогодаТемператураВлажностьДавлениеВетер, м/сВероятность осадков
    00:00Ясно и безоблачно+15°C88 %697 мм2.4 м/с5 %
    03:00Ясно и безоблачно+14°C93 %695 мм2.3 м/с5 %
    06:00Ясно и безоблачно+13°C95 %696 мм1.3 м/с5 %
    09:00Ясно и безоблачно+17°C62 %698 мм1.7 м/с5 %
    12:00Ясно и безоблачно+24°C37 %699 мм1.9 м/с5 %
    15:00Ясно и безоблачно+26°C34 %698 мм2.0 м/с5 %
    18:00Ясно и безоблачно+23°C58 %698 мм2.4 м/с5 %
    21:00Ясно и безоблачно+18°C88 %698 мм3.2 м/с5 %
  • 23июля
    Вторник
    +11°
    +26°
    Небольшая облачность
    ВремяПогодаТемператураВлажностьДавлениеВетер, м/сВероятность осадков
    00:00Ясно и безоблачно+15°C87 %698 мм3.4 м/с5 %
    03:00Ясно и безоблачно+13°C87 %696 мм3.6 м/с5 %
    06:00Ясно и безоблачно+12°C90 %697 мм3.9 м/с5 %
    09:00Ясно и безоблачно+16°C65 %699 мм3.7 м/с5 %
    12:00Ясно и безоблачно+23°C39 %699 мм2.5 м/с5 %
    15:00Небольшая облачность+25°C34 %698 мм2.4 м/с5 %
    18:00Небольшая облачность+22°C48 %698 мм3.0 м/с5 %
    21:00Ясно и безоблачно+16°C83 %698 мм3.7 м/с5 %
  • 24июля
    Среда
    +13°
    +27°
    Облачно с прояснениями
    ВремяПогодаТемператураВлажностьДавлениеВетер, м/сВероятность осадков
    00:00Небольшая облачность+15°C87 %697 мм3.6 м/с5 %
    03:00Практически безоблачно+13°C90 %696 мм3.3 м/с5 %
    06:00Ясно и безоблачно+13°C90 %697 мм3.2 м/с5 %
    09:00Практически безоблачно+16°C65 %699 мм2.6 м/с5 %
    12:00Облачно с прояснениями+24°C40 %699 мм1.0 м/с5 %
    15:00Облачно с прояснениями+26°C34 %698 мм1.5 м/с5 %
    18:00Небольшая облачность+23°C52 %698 мм1.8 м/с5 %
    21:00Небольшая облачность+18°C72 %698 мм2.7 м/с5 %
  • 25июля
    Четверг
    +14°
    +28°
    Ясно и безоблачно
    ВремяПогодаТемператураВлажностьДавлениеВетер, м/сВероятность осадков
    00:00Облачно с прояснениями+15°C87 %697 мм2.8 м/с5 %
    03:00Практически безоблачно+14°C92 %696 мм2.6 м/с5 %
    06:00Ясно и безоблачно+13°C91 %696 мм2.1 м/с5 %
    09:00Ясно и безоблачно+18°C62 %698 мм1.3 м/с5 %
    12:00Ясно и безоблачно+25°C33 %698 мм3.3 м/с5 %
    15:00Ясно и безоблачно+27°C31 %696 мм3.4 м/с5 %
    18:00Ясно и безоблачно+25°C40 %696 мм1.8 м/с5 %
    21:00Ясно и безоблачно+20°C61 %696 мм1.6 м/с5 %
Мы используем cookies
Соглашаюсь